createdAt,value
2017-08-04T00:02:46.489Z,1004.05
2017-08-04T00:07:42.901Z,1003.94
2017-08-04T00:12:39.760Z,1004.11
2017-08-04T00:17:35.238Z,1004.02
2017-08-04T00:22:30.906Z,1004.12
2017-08-04T00:27:26.710Z,1004.04
2017-08-04T00:32:23.710Z,1004.05
2017-08-04T00:37:19.234Z,1004.04
2017-08-04T00:42:14.834Z,1004.13
2017-08-04T00:47:10.706Z,1004.10
2017-08-04T00:52:07.832Z,1004.07
2017-08-04T00:57:03.368Z,1004.16
2017-08-04T01:01:59.355Z,1004.12
2017-08-04T01:06:55.270Z,1004.05
2017-08-04T01:11:52.353Z,1004.15
2017-08-04T01:16:47.774Z,1004.07
2017-08-04T01:21:44.720Z,1004.16
2017-08-04T01:26:40.389Z,1004.13
2017-08-04T01:31:37.446Z,1004.11
2017-08-04T01:36:33.431Z,1003.97
2017-08-04T01:41:29.150Z,1003.99
2017-08-04T01:46:26.066Z,1003.92
2017-08-04T01:51:21.604Z,1003.89
2017-08-04T01:56:17.576Z,1003.95
2017-08-04T02:01:13.327Z,1003.98
2017-08-04T02:06:09.187Z,1003.96
2017-08-04T02:11:05.922Z,1003.94
2017-08-04T02:16:01.807Z,1004.06
2017-08-04T02:20:57.595Z,1004.17
2017-08-04T02:25:54.369Z,1004.13
2017-08-04T02:30:50.980Z,1004.06
2017-08-04T02:35:47.129Z,1004.12
2017-08-04T02:40:42.870Z,1004.10
2017-08-04T02:45:38.878Z,1004.02
2017-08-04T02:50:34.807Z,1003.97
2017-08-04T02:55:30.663Z,1004.00
2017-08-04T03:00:26.462Z,1003.99
2017-08-04T03:05:23.031Z,1003.98
2017-08-04T03:10:18.912Z,1003.97
2017-08-04T03:15:15.446Z,1003.99
2017-08-04T03:20:11.512Z,1003.99
2017-08-04T03:25:08.237Z,1003.98
2017-08-04T03:30:03.738Z,1004.02
2017-08-04T03:35:00.772Z,1004.02
2017-08-04T03:39:57.566Z,1003.99
2017-08-04T03:44:53.601Z,1004.00
2017-08-04T03:49:49.451Z,1003.91
2017-08-04T03:54:46.609Z,1004.08
2017-08-04T03:59:43.590Z,1004.00
2017-08-04T04:04:40.199Z,1003.91
2017-08-04T04:09:36.753Z,1003.97
2017-08-04T04:14:32.345Z,1003.92
2017-08-04T04:19:28.361Z,1003.96
2017-08-04T04:24:25.135Z,1003.97
2017-08-04T04:29:20.876Z,1004.08
2017-08-04T04:34:18.605Z,1004.02
2017-08-04T04:39:14.866Z,1004.15
2017-08-04T04:44:11.911Z,1004.01
2017-08-04T04:49:07.667Z,1003.97
2017-08-04T04:54:04.870Z,1003.95
2017-08-04T04:59:00.466Z,1003.83
2017-08-04T05:03:57.418Z,1003.95
2017-08-04T05:08:53.115Z,1004.12
2017-08-04T05:13:49.274Z,1004.06
2017-08-04T05:18:45.052Z,1003.82
2017-08-04T05:23:42.055Z,1003.78
2017-08-04T05:28:38.820Z,1003.97
2017-08-04T05:33:34.277Z,1004.02
2017-08-04T05:38:30.311Z,1004.06
2017-08-04T05:43:27.349Z,1004.13
2017-08-04T05:48:23.011Z,1004.09
2017-08-04T05:53:20.047Z,1004.16
2017-08-04T05:58:15.730Z,1004.31
2017-08-04T06:03:11.527Z,1004.31
2017-08-04T06:08:07.717Z,1004.33
2017-08-04T06:13:04.832Z,1004.06
2017-08-04T06:18:01.598Z,1004.22
2017-08-04T06:22:58.421Z,1004.27
2017-08-04T06:27:54.971Z,1004.26
2017-08-04T06:32:50.661Z,1004.22
2017-08-04T06:37:47.966Z,1004.52
2017-08-04T06:42:43.673Z,1004.42
2017-08-04T06:47:40.723Z,1004.53
2017-08-04T06:52:36.454Z,1004.52
2017-08-04T06:57:32.881Z,1004.32
2017-08-04T07:02:30.368Z,1004.32
2017-08-04T07:12:28.103Z,1004.36
2017-08-04T07:17:24.139Z,1004.44
2017-08-04T07:22:21.679Z,1004.54
2017-08-04T07:27:17.215Z,1004.44
2017-08-04T07:32:13.223Z,1004.36
2017-08-04T07:37:09.397Z,1004.44
2017-08-04T07:42:06.769Z,1004.56
2017-08-04T07:47:03.967Z,1004.53
2017-08-04T07:52:01.173Z,1004.47
2017-08-04T07:56:59.057Z,1004.40
2017-08-04T08:01:55.096Z,1004.44
2017-08-04T08:06:51.874Z,1004.42
2017-08-04T08:11:48.220Z,1004.43
2017-08-04T08:16:45.187Z,1004.56
2017-08-04T08:21:40.970Z,1004.40
2017-08-04T08:26:40.024Z,1004.63
2017-08-04T08:31:37.402Z,1004.54
2017-08-04T08:36:32.664Z,1004.57
2017-08-04T08:41:28.590Z,1004.64
2017-08-04T08:46:24.530Z,1004.44
2017-08-04T08:51:21.961Z,1004.48
2017-08-04T08:56:17.416Z,1004.55
2017-08-04T09:01:14.221Z,1004.69
2017-08-04T09:06:10.466Z,1004.77
2017-08-04T09:11:06.811Z,1004.63
2017-08-04T09:16:02.643Z,1004.44
2017-08-04T09:20:59.106Z,1004.56
2017-08-04T09:25:55.373Z,1004.52
2017-08-04T09:30:51.247Z,1004.37
2017-08-04T09:35:47.557Z,1004.52
2017-08-04T09:40:43.774Z,1004.57
2017-08-04T09:45:40.729Z,1004.59
2017-08-04T09:50:35.994Z,1004.69
2017-08-04T09:55:32.931Z,1004.62
2017-08-04T10:00:30.385Z,1004.68
2017-08-04T10:05:25.985Z,1004.65
2017-08-04T10:15:21.115Z,1004.78
2017-08-04T10:20:17.587Z,1004.82
2017-08-04T10:25:13.035Z,1004.82
2017-08-04T10:30:08.783Z,1004.90
2017-08-04T10:35:04.592Z,1004.83
2017-08-04T10:40:01.593Z,1004.86
2017-08-04T10:44:58.687Z,1005.02
2017-08-04T10:49:55.402Z,1005.02
2017-08-04T10:54:51.543Z,1005.09
2017-08-04T10:59:49.488Z,1004.98
2017-08-04T11:04:47.839Z,1004.93
2017-08-04T11:09:43.392Z,1005.21
2017-08-04T11:14:40.506Z,1004.93
2017-08-04T11:19:36.405Z,1004.95
2017-08-04T11:24:31.507Z,1005.12
2017-08-04T11:29:27.833Z,1005.11
2017-08-04T11:34:23.690Z,1005.08
2017-08-04T11:39:23.294Z,1005.12
2017-08-04T11:44:19.123Z,1005.10
2017-08-04T11:49:15.275Z,1005.19
2017-08-04T11:54:11.401Z,1005.30
2017-08-04T11:59:07.814Z,1005.23
2017-08-04T12:04:05.593Z,1005.01
2017-08-04T12:09:02.724Z,1005.21
2017-08-04T12:13:58.621Z,1005.14
2017-08-04T12:18:55.053Z,1005.26
2017-08-04T12:23:50.712Z,1005.26
2017-08-04T12:28:47.690Z,1005.21
2017-08-04T12:33:45.682Z,1005.29
2017-08-04T12:38:43.848Z,1005.14
2017-08-04T12:43:41.825Z,1005.23
2017-08-04T12:48:35.664Z,1005.28
2017-08-04T12:53:32.097Z,1005.28
2017-08-04T13:08:38.717Z,1005.10
2017-08-04T13:13:41.016Z,1005.25
2017-08-04T13:18:36.488Z,1005.28
2017-08-04T13:23:32.439Z,1005.23
2017-08-04T13:28:28.746Z,1005.35
2017-08-04T13:33:24.117Z,1005.36
2017-08-04T13:38:21.322Z,1005.47
2017-08-04T13:43:17.489Z,1005.52
2017-08-04T13:48:14.272Z,1005.50
2017-08-04T13:53:09.506Z,1005.60
2017-08-04T13:58:06.066Z,1005.59
2017-08-04T14:03:01.447Z,1005.59
2017-08-04T14:07:58.146Z,1005.66
2017-08-04T14:12:54.149Z,1005.74
2017-08-04T14:17:50.635Z,1005.76
2017-08-04T14:22:45.979Z,1005.76
2017-08-04T14:27:43.558Z,1005.92
2017-08-04T14:32:39.126Z,1005.79
2017-08-04T14:37:36.421Z,1005.79
2017-08-04T14:42:32.268Z,1005.80
2017-08-04T14:47:30.087Z,1005.81
2017-08-04T14:52:25.936Z,1005.65
2017-08-04T14:57:22.896Z,1005.83
2017-08-04T15:02:19.388Z,1005.89
2017-08-04T15:07:15.932Z,1005.79
2017-08-04T15:12:11.669Z,1005.93
2017-08-04T15:17:08.981Z,1005.81
2017-08-04T15:22:04.779Z,1005.75
2017-08-04T15:27:00.379Z,1005.85
2017-08-04T15:31:56.432Z,1005.78
2017-08-04T15:36:53.057Z,1005.76
2017-08-04T15:41:48.725Z,1005.74
2017-08-04T15:46:44.824Z,1005.81
2017-08-04T15:51:41.143Z,1005.74
2017-08-04T15:56:37.172Z,1005.73
2017-08-04T16:01:33.562Z,1005.77
2017-08-04T16:06:29.497Z,1005.67
2017-08-04T16:11:25.265Z,1005.78
2017-08-04T16:16:21.158Z,1005.74
2017-08-04T16:21:16.905Z,1005.78
2017-08-04T16:26:13.421Z,1005.89
2017-08-04T16:31:08.829Z,1005.77
2017-08-04T16:36:05.749Z,1005.80
2017-08-04T16:41:01.483Z,1005.80
2017-08-04T16:45:57.702Z,1005.89
2017-08-04T16:50:54.917Z,1005.93
2017-08-04T16:55:50.671Z,1005.91
2017-08-04T17:00:47.464Z,1005.85
2017-08-04T17:05:43.541Z,1005.91
2017-08-04T17:10:42.172Z,1005.97
2017-08-04T17:15:38.461Z,1005.91
2017-08-04T17:20:33.811Z,1005.95
2017-08-04T17:25:30.325Z,1006.13
2017-08-04T17:30:26.221Z,1006.19
2017-08-04T17:35:24.192Z,1006.10
2017-08-04T17:40:19.663Z,1006.09
2017-08-04T17:45:15.361Z,1006.19
2017-08-04T17:50:11.232Z,1006.27
2017-08-04T17:55:07.188Z,1006.34
2017-08-04T18:00:03.040Z,1006.25
2017-08-04T18:04:59.719Z,1006.34
2017-08-04T18:09:55.290Z,1006.33
2017-08-04T18:14:51.077Z,1006.29
2017-08-04T18:19:46.960Z,1006.43
2017-08-04T18:24:42.653Z,1006.53
2017-08-04T18:29:38.786Z,1006.58
2017-08-04T18:34:34.989Z,1006.62
2017-08-04T18:39:31.248Z,1006.73
2017-08-04T18:44:27.148Z,1006.69
2017-08-04T18:49:24.079Z,1006.68
2017-08-04T18:54:19.536Z,1006.81
2017-08-04T18:59:15.929Z,1006.84
2017-08-04T19:04:11.615Z,1006.84
2017-08-04T19:09:07.449Z,1006.73
2017-08-04T19:14:04.474Z,1006.84
2017-08-04T19:19:00.042Z,1006.82
2017-08-04T19:23:56.446Z,1006.83
2017-08-04T19:28:54.376Z,1006.76
2017-08-04T19:33:50.630Z,1006.91
2017-08-04T19:38:46.505Z,1006.97
2017-08-04T19:43:43.263Z,1007.00
2017-08-04T19:48:38.968Z,1007.12
2017-08-04T19:53:35.162Z,1007.06
2017-08-04T19:58:32.215Z,1007.05
2017-08-04T20:03:27.702Z,1007.00
2017-08-04T20:08:23.633Z,1006.98
2017-08-04T20:13:20.531Z,1006.96
2017-08-04T20:18:18.164Z,1007.09
2017-08-04T20:23:14.422Z,1007.15
2017-08-04T20:28:10.951Z,1007.12
2017-08-04T20:33:08.998Z,1007.13
2017-08-04T20:38:05.448Z,1007.10
2017-08-04T20:43:01.646Z,1007.11
2017-08-04T20:47:58.932Z,1007.09
2017-08-04T20:52:54.703Z,1007.14
2017-08-04T20:57:51.565Z,1007.12
2017-08-04T21:02:47.673Z,1007.26
2017-08-04T21:07:44.033Z,1007.19
2017-08-04T21:12:40.995Z,1007.13
2017-08-04T21:17:37.832Z,1007.17
2017-08-04T21:22:34.291Z,1007.21
2017-08-04T21:27:30.929Z,1007.17
2017-08-04T21:32:26.865Z,1007.10
2017-08-04T21:37:22.877Z,1007.08
2017-08-04T21:42:19.701Z,1007.03
2017-08-04T21:47:16.666Z,1007.12
2017-08-04T21:52:13.261Z,1007.23
2017-08-04T21:57:10.256Z,1007.20
2017-08-04T22:07:08.069Z,1007.21
2017-08-04T22:12:03.679Z,1007.00
2017-08-04T22:17:01.769Z,1007.02
2017-08-04T22:21:58.969Z,1006.83
2017-08-04T22:26:56.913Z,1006.92
2017-08-04T22:31:53.367Z,1006.98
2017-08-04T22:36:49.814Z,1007.02
2017-08-04T22:41:46.628Z,1007.15
2017-08-04T22:46:43.331Z,1007.23
2017-08-04T22:51:39.675Z,1007.24
2017-08-04T22:56:35.226Z,1007.18
2017-08-04T23:01:32.205Z,1007.16
2017-08-04T23:06:29.133Z,1007.19
2017-08-04T23:11:26.848Z,1007.30
2017-08-04T23:16:23.286Z,1007.16
2017-08-04T23:21:18.994Z,1007.19
2017-08-04T23:26:14.985Z,1007.20
2017-08-04T23:31:11.882Z,1007.14
2017-08-04T23:36:08.593Z,1007.15
2017-08-04T23:41:04.220Z,1007.28
2017-08-04T23:46:01.079Z,1007.25
2017-08-04T23:50:56.847Z,1007.21
2017-08-04T23:55:54.231Z,1007.16
